createdAt,value
2019-05-21T00:01:16.408Z,32.50
2019-05-21T00:03:45.720Z,32.80
2019-05-21T00:06:14.981Z,34.10
2019-05-21T00:08:44.130Z,32.33
2019-05-21T00:11:13.281Z,32.77
2019-05-21T00:13:42.504Z,32.00
2019-05-21T00:16:11.727Z,32.57
2019-05-21T00:18:40.955Z,30.70
2019-05-21T00:21:10.327Z,32.33
2019-05-21T00:23:39.545Z,30.93
2019-05-21T00:26:08.778Z,32.17
2019-05-21T00:28:42.601Z,33.50
2019-05-21T00:31:47.491Z,31.37
2019-05-21T00:34:52.299Z,30.77
2019-05-21T00:37:57.118Z,32.43
2019-05-21T00:41:01.790Z,31.73
2019-05-21T00:43:45.555Z,30.63
2019-05-21T00:46:14.789Z,33.53
2019-05-21T00:48:44.031Z,33.93
2019-05-21T00:51:13.310Z,33.03
2019-05-21T00:53:42.453Z,32.40
2019-05-21T00:56:11.678Z,32.80
2019-05-21T00:58:40.989Z,34.70
2019-05-21T01:01:10.434Z,33.03
2019-05-21T01:03:43.150Z,34.23
2019-05-21T01:06:10.573Z,33.83
2019-05-21T01:08:39.829Z,33.33
2019-05-21T01:11:09.058Z,34.20
2019-05-21T01:13:38.264Z,33.43
2019-05-21T01:16:07.497Z,32.83
2019-05-21T01:18:36.734Z,33.40
2019-05-21T01:21:06.637Z,31.93
2019-05-21T01:23:35.915Z,33.00
2019-05-21T01:26:05.214Z,31.10
2019-05-21T01:28:34.473Z,32.00
2019-05-21T01:31:03.633Z,32.80
2019-05-21T01:33:32.930Z,31.27
2019-05-21T01:36:02.176Z,32.63
2019-05-21T01:38:31.510Z,32.63
2019-05-21T01:41:00.734Z,33.03
2019-05-21T01:43:29.926Z,33.83
2019-05-21T01:45:59.167Z,34.60
2019-05-21T01:48:28.405Z,35.03
2019-05-21T01:50:57.664Z,35.83
2019-05-21T01:53:26.871Z,33.77
2019-05-21T01:55:56.162Z,34.27
2019-05-21T01:58:25.411Z,34.43
2019-05-21T02:00:54.642Z,32.40
2019-05-21T02:03:23.878Z,32.07
2019-05-21T02:05:53.274Z,31.50
2019-05-21T02:08:22.529Z,33.30
2019-05-21T02:10:51.787Z,34.43
2019-05-21T02:13:21.117Z,33.27
2019-05-21T02:15:50.344Z,32.67
2019-05-21T02:18:19.645Z,34.03
2019-05-21T02:20:48.805Z,32.27
2019-05-21T02:23:18.090Z,32.63
2019-05-21T02:25:47.310Z,32.87
2019-05-21T02:28:16.505Z,33.63
2019-05-21T02:30:45.739Z,32.77
2019-05-21T02:33:15.095Z,32.50
2019-05-21T02:35:54.094Z,32.53
2019-05-21T02:38:15.233Z,33.40
2019-05-21T02:40:44.542Z,32.97
2019-05-21T02:43:13.754Z,33.97
2019-05-21T02:45:43.048Z,34.03
2019-05-21T02:48:12.317Z,36.03
2019-05-21T02:50:41.620Z,34.20
2019-05-21T02:53:10.947Z,35.70
2019-05-21T02:55:40.139Z,35.57
2019-05-21T02:58:09.306Z,38.17
2019-05-21T03:00:57.575Z,39.33
2019-05-21T03:03:29.107Z,39.73
2019-05-21T03:06:12.973Z,38.53
2019-05-21T03:08:29.241Z,39.47
2019-05-21T03:10:58.443Z,38.73
2019-05-21T03:13:27.706Z,37.97
2019-05-21T03:15:56.951Z,37.60
2019-05-21T03:18:26.190Z,36.53
2019-05-21T03:20:55.438Z,37.43
2019-05-21T03:23:24.989Z,36.57
2019-05-21T03:25:54.235Z,37.83
2019-05-21T03:28:23.471Z,36.57
2019-05-21T03:30:52.711Z,37.43
2019-05-21T03:33:22.005Z,38.53
2019-05-21T03:35:51.393Z,34.77
2019-05-21T03:38:20.690Z,36.73
2019-05-21T03:40:50.138Z,33.37
2019-05-21T03:43:19.357Z,30.17
2019-05-21T03:45:48.606Z,28.57
2019-05-21T03:48:17.868Z,25.27
2019-05-21T03:50:48.149Z,25.67
2019-05-21T03:53:17.347Z,25.23
2019-05-21T03:55:46.584Z,25.67
2019-05-21T03:58:15.855Z,24.87
2019-05-21T04:00:45.093Z,25.80
2019-05-21T04:03:14.320Z,23.73
2019-05-21T04:05:43.551Z,23.37
2019-05-21T04:08:12.845Z,22.27
2019-05-21T04:10:42.076Z,22.03
2019-05-21T04:13:11.287Z,20.33
2019-05-21T04:16:04.858Z,21.97
2019-05-21T04:18:47.609Z,21.47
2019-05-21T04:21:16.910Z,22.90
2019-05-21T04:23:46.158Z,24.17
2019-05-21T04:26:15.554Z,24.60
2019-05-21T04:28:44.722Z,23.07
2019-05-21T04:31:13.960Z,23.70
2019-05-21T04:33:43.186Z,24.13
2019-05-21T04:36:12.539Z,24.23
2019-05-21T04:38:41.875Z,26.00
2019-05-21T04:41:11.172Z,25.97
2019-05-21T04:43:40.399Z,27.80
2019-05-21T04:46:09.755Z,26.87
2019-05-21T04:48:38.999Z,28.33
2019-05-21T04:51:08.431Z,26.17
2019-05-21T04:53:37.677Z,26.47
2019-05-21T04:56:07.124Z,25.33
2019-05-21T04:58:36.451Z,26.07
2019-05-21T05:01:05.854Z,25.40
2019-05-21T05:03:35.110Z,25.87
2019-05-21T05:06:04.358Z,26.10
2019-05-21T05:08:33.594Z,24.57
2019-05-21T05:11:02.906Z,24.60
2019-05-21T05:13:32.149Z,24.10
2019-05-21T05:16:04.018Z,24.57
2019-05-21T05:18:32.317Z,22.93
2019-05-21T05:21:01.537Z,24.10
2019-05-21T05:23:30.711Z,24.20
2019-05-21T05:25:59.932Z,24.50
2019-05-21T05:28:29.182Z,23.97
2019-05-21T05:30:58.586Z,25.57
2019-05-21T05:33:27.941Z,26.67
2019-05-21T05:35:57.396Z,27.33
2019-05-21T05:38:26.701Z,26.87
2019-05-21T05:40:55.977Z,26.53
2019-05-21T05:43:25.217Z,26.40
2019-05-21T05:45:54.961Z,27.77
2019-05-21T05:48:24.656Z,26.17
2019-05-21T05:50:55.861Z,26.13
2019-05-21T05:53:25.205Z,28.73
2019-05-21T05:55:54.608Z,27.60
2019-05-21T05:58:24.015Z,27.83
2019-05-21T06:00:53.533Z,24.47
2019-05-21T06:03:23.044Z,26.10
2019-05-21T06:05:52.718Z,26.00
2019-05-21T06:08:22.169Z,23.30
2019-05-21T06:10:51.549Z,20.80
2019-05-21T06:13:20.975Z,19.87
2019-05-21T06:15:50.280Z,17.97
2019-05-21T06:18:20.939Z,17.90
2019-05-21T06:20:50.363Z,19.07
2019-05-21T06:23:19.792Z,18.43
2019-05-21T06:25:49.176Z,18.47
2019-05-21T06:28:18.604Z,18.67
2019-05-21T06:30:48.056Z,18.93
2019-05-21T06:33:17.512Z,19.07
2019-05-21T06:35:46.989Z,19.97
2019-05-21T06:38:18.178Z,19.43
2019-05-21T06:40:47.432Z,20.00
2019-05-21T06:43:16.828Z,19.93
2019-05-21T06:45:46.217Z,20.53
2019-05-21T06:48:15.744Z,21.93
2019-05-21T06:50:45.141Z,19.87
2019-05-21T06:53:14.562Z,20.53
2019-05-21T06:55:44.279Z,21.07
2019-05-21T06:58:13.663Z,21.30
2019-05-21T07:00:43.074Z,22.57
2019-05-21T07:03:12.460Z,23.13
2019-05-21T07:05:57.738Z,21.47
2019-05-21T07:08:12.885Z,19.13
2019-05-21T07:10:42.257Z,21.40
2019-05-21T07:13:11.626Z,20.93
2019-05-21T07:15:40.995Z,21.30
2019-05-21T07:18:10.349Z,19.50
2019-05-21T07:20:39.678Z,19.37
2019-05-21T07:23:09.045Z,19.30
2019-05-21T07:25:38.425Z,18.63
2019-05-21T07:28:07.809Z,16.13
2019-05-21T07:30:37.196Z,16.33
2019-05-21T07:33:07.098Z,15.87
2019-05-21T07:35:36.810Z,16.23
2019-05-21T07:38:06.206Z,17.77
2019-05-21T07:40:35.597Z,16.77
2019-05-21T07:43:04.989Z,17.20
2019-05-21T07:45:34.371Z,18.47
2019-05-21T07:48:03.681Z,19.07
2019-05-21T07:50:33.087Z,17.47
2019-05-21T07:53:02.531Z,17.73
2019-05-21T07:55:31.889Z,17.13
2019-05-21T07:58:01.181Z,16.20
2019-05-21T08:00:30.557Z,16.63
2019-05-21T08:02:59.946Z,17.70
2019-05-21T08:05:29.369Z,17.70
2019-05-21T08:07:58.761Z,18.90
2019-05-21T08:10:28.164Z,18.97
2019-05-21T08:12:57.564Z,18.13
2019-05-21T08:15:26.982Z,17.50
2019-05-21T08:17:56.379Z,16.27
2019-05-21T08:20:26.567Z,16.43
2019-05-21T08:22:56.153Z,15.13
2019-05-21T08:25:25.985Z,15.53
2019-05-21T08:27:55.374Z,17.60
2019-05-21T08:30:24.758Z,17.13
2019-05-21T08:32:54.161Z,16.30
2019-05-21T08:35:23.571Z,17.17
2019-05-21T08:37:52.940Z,16.63
2019-05-21T08:40:22.424Z,16.83
2019-05-21T08:42:51.786Z,16.27
2019-05-21T08:45:21.304Z,18.27
2019-05-21T08:47:50.736Z,17.20
2019-05-21T08:50:20.193Z,16.50
2019-05-21T08:52:49.581Z,17.80
2019-05-21T08:55:18.995Z,18.60
2019-05-21T09:00:20.968Z,18.03
2019-05-21T09:02:50.273Z,16.33
2019-05-21T09:03:13.778Z,18.30
2019-05-21T09:05:19.953Z,14.47
2019-05-21T09:07:53.463Z,12.83
2019-05-21T09:10:20.655Z,14.60
2019-05-21T09:12:50.070Z,14.93
2019-05-21T09:15:19.835Z,13.97
2019-05-21T09:17:49.236Z,13.37
2019-05-21T09:20:18.882Z,12.63
2019-05-21T09:22:48.259Z,12.23
2019-05-21T09:25:17.801Z,12.93
2019-05-21T09:27:47.138Z,14.67
2019-05-21T09:30:16.597Z,15.83
2019-05-21T09:32:45.944Z,17.63
2019-05-21T09:35:16.814Z,16.60
2019-05-21T09:37:46.077Z,14.27
2019-05-21T09:40:17.156Z,14.13
2019-05-21T09:42:46.574Z,13.57
2019-05-21T09:45:16.253Z,16.73
2019-05-21T09:47:45.677Z,15.87
2019-05-21T09:50:15.281Z,14.40
2019-05-21T09:52:44.905Z,15.47
2019-05-21T09:55:14.546Z,16.17
2019-05-21T09:57:56.619Z,16.53
2019-05-21T10:00:43.939Z,18.33
2019-05-21T10:03:15.405Z,16.77
2019-05-21T10:05:44.878Z,17.07
2019-05-21T10:08:14.275Z,15.40
2019-05-21T10:10:43.661Z,15.63
2019-05-21T10:13:13.065Z,15.13
2019-05-21T10:15:42.517Z,14.67
2019-05-21T10:18:11.899Z,15.77
2019-05-21T10:20:41.272Z,15.70
2019-05-21T10:23:10.686Z,15.90
2019-05-21T10:25:40.109Z,14.80
2019-05-21T10:28:09.494Z,14.47
2019-05-21T10:30:38.871Z,12.87
2019-05-21T10:33:08.281Z,12.30
2019-05-21T10:35:37.678Z,12.77
2019-05-21T10:38:07.065Z,12.47
2019-05-21T10:40:36.457Z,11.83
2019-05-21T10:43:05.907Z,12.73
2019-05-21T10:45:35.267Z,12.87
2019-05-21T10:48:04.739Z,13.30
2019-05-21T10:50:34.145Z,15.20
2019-05-21T10:53:03.501Z,11.97
2019-05-21T10:55:32.901Z,11.50
2019-05-21T10:58:02.293Z,13.17
2019-05-21T11:00:31.678Z,14.10
2019-05-21T11:03:08.945Z,13.20
2019-05-21T11:05:42.104Z,13.63
2019-05-21T11:08:26.772Z,13.33
2019-05-21T11:10:42.451Z,14.90
2019-05-21T11:13:11.831Z,15.27
2019-05-21T11:15:41.278Z,16.67
2019-05-21T11:18:11.945Z,15.90
2019-05-21T11:20:41.615Z,15.83
2019-05-21T11:23:11.005Z,16.63
2019-05-21T11:25:40.403Z,16.53
2019-05-21T11:28:10.032Z,14.70
2019-05-21T11:30:39.524Z,16.63
2019-05-21T11:33:08.905Z,16.80
2019-05-21T11:35:38.417Z,16.13
2019-05-21T11:38:07.816Z,16.83
2019-05-21T11:40:37.195Z,16.00
2019-05-21T11:43:06.536Z,16.23
2019-05-21T11:45:35.908Z,16.43
2019-05-21T11:48:05.403Z,15.43
2019-05-21T11:50:34.813Z,18.17
2019-05-21T11:53:04.185Z,18.33
2019-05-21T11:55:33.544Z,16.77
2019-05-21T11:58:02.844Z,14.10
2019-05-21T12:00:32.559Z,15.97
2019-05-21T12:03:01.983Z,15.03
2019-05-21T12:05:31.365Z,15.07
2019-05-21T12:08:00.776Z,14.57
2019-05-21T12:10:30.149Z,14.93
2019-05-21T12:12:59.558Z,12.60
2019-05-21T12:15:28.924Z,14.07
2019-05-21T12:17:58.315Z,12.60
2019-05-21T12:20:36.793Z,12.03
2019-05-21T12:22:58.656Z,13.27
2019-05-21T12:25:28.055Z,13.03
2019-05-21T12:27:57.423Z,14.40
2019-05-21T12:30:26.850Z,13.07
2019-05-21T12:32:56.322Z,11.73
2019-05-21T12:35:25.731Z,13.10
2019-05-21T12:37:55.111Z,13.50
2019-05-21T12:40:25.380Z,12.17
2019-05-21T12:42:54.778Z,13.63
2019-05-21T12:45:24.181Z,12.83
2019-05-21T12:47:53.553Z,13.27
2019-05-21T12:50:23.014Z,13.87
2019-05-21T12:52:52.441Z,13.53
2019-05-21T12:55:21.895Z,14.07
2019-05-21T12:57:51.617Z,14.10
2019-05-21T13:00:23.177Z,14.53
2019-05-21T13:02:52.548Z,14.80
2019-05-21T13:05:21.907Z,14.57
2019-05-21T13:07:51.578Z,13.70
2019-05-21T13:10:20.850Z,13.67
2019-05-21T13:12:50.265Z,15.53
2019-05-21T13:15:19.994Z,14.93
2019-05-21T13:17:49.360Z,16.20
2019-05-21T13:20:18.985Z,13.75
2019-05-21T13:22:48.252Z,14.03
2019-05-21T13:25:17.625Z,13.25
2019-05-21T13:27:47.054Z,12.53
2019-05-21T13:30:17.828Z,11.75
2019-05-21T13:32:47.208Z,14.25
2019-05-21T13:35:16.658Z,12.05
2019-05-21T13:37:46.036Z,16.10
2019-05-21T13:40:17.514Z,16.62
2019-05-21T13:42:46.874Z,13.80
2019-05-21T13:45:16.469Z,15.13
2019-05-21T13:47:45.884Z,14.07
2019-05-21T13:50:15.380Z,15.03
2019-05-21T13:52:44.787Z,15.58
2019-05-21T13:55:14.463Z,15.32
2019-05-21T13:57:43.902Z,12.10
2019-05-21T14:00:18.693Z,15.43
2019-05-21T14:02:48.086Z,13.62
2019-05-21T14:05:18.039Z,13.45
2019-05-21T14:07:47.436Z,15.53
2019-05-21T14:10:20.598Z,15.40
2019-05-21T14:12:47.927Z,15.32
2019-05-21T14:15:17.415Z,12.93
2019-05-21T14:17:46.805Z,14.23
2019-05-21T14:20:16.392Z,13.83
2019-05-21T14:22:45.798Z,13.70
2019-05-21T14:25:15.268Z,14.80
2019-05-21T14:27:45.276Z,13.50
2019-05-21T14:30:15.024Z,11.60
2019-05-21T14:32:44.465Z,11.85
2019-05-21T14:35:13.850Z,11.33
2019-05-21T14:37:43.177Z,10.55
2019-05-21T14:40:29.740Z,9.90
2019-05-21T14:42:58.413Z,10.88
2019-05-21T14:45:15.630Z,10.72
2019-05-21T14:47:44.961Z,9.13
2019-05-21T14:50:14.927Z,9.10
2019-05-21T14:52:44.333Z,10.68
2019-05-21T14:55:13.848Z,9.43
2019-05-21T14:57:43.554Z,9.58
2019-05-21T15:00:32.715Z,10.48
2019-05-21T15:03:02.044Z,8.80
2019-05-21T15:05:31.364Z,11.63
2019-05-21T15:08:00.615Z,8.00
2019-05-21T15:10:29.850Z,8.48
2019-05-21T15:12:59.098Z,9.20
2019-05-21T15:15:28.319Z,7.90
2019-05-21T15:17:57.615Z,8.60
2019-05-21T15:20:58.273Z,8.23
2019-05-21T15:23:27.684Z,8.85
2019-05-21T15:25:57.012Z,8.08
2019-05-21T15:28:26.278Z,8.03
2019-05-21T15:30:55.643Z,8.55
2019-05-21T15:33:25.749Z,8.33
2019-05-21T15:35:55.169Z,8.23
2019-05-21T15:38:24.393Z,8.65
2019-05-21T15:41:09.361Z,9.78
2019-05-21T15:43:24.620Z,11.57
2019-05-21T15:45:54.055Z,9.98
2019-05-21T15:48:26.243Z,8.05
2019-05-21T15:50:54.234Z,10.98
2019-05-21T15:53:23.618Z,8.18
2019-05-21T15:55:52.962Z,7.08
2019-05-21T15:58:26.553Z,6.87
2019-05-21T16:00:53.120Z,8.75
2019-05-21T16:03:22.359Z,9.98
2019-05-21T16:05:51.581Z,7.97
2019-05-21T16:08:20.932Z,8.30
2019-05-21T16:10:50.317Z,7.70
2019-05-21T16:13:19.681Z,6.60
2019-05-21T16:15:48.940Z,7.75
2019-05-21T16:18:18.469Z,6.80
2019-05-21T16:20:47.795Z,6.90
2019-05-21T16:23:17.074Z,7.65
2019-05-21T16:25:46.308Z,7.83
2019-05-21T16:28:15.533Z,7.58
2019-05-21T16:30:44.888Z,6.92
2019-05-21T16:33:14.314Z,6.78
2019-05-21T16:35:43.549Z,8.85
2019-05-21T16:38:13.159Z,7.78
2019-05-21T16:40:42.590Z,7.58
2019-05-21T16:43:12.078Z,8.10
2019-05-21T16:45:41.572Z,8.28
2019-05-21T16:48:11.252Z,8.60
2019-05-21T16:50:40.862Z,9.00
2019-05-21T16:53:10.570Z,10.35
2019-05-21T16:55:39.818Z,9.60
2019-05-21T16:58:09.598Z,9.18
2019-05-21T17:00:39.218Z,9.38
2019-05-21T17:03:08.460Z,10.08
2019-05-21T17:05:37.738Z,9.55
2019-05-21T17:08:06.970Z,9.90
2019-05-21T17:10:36.267Z,9.25
2019-05-21T17:13:05.496Z,8.85
2019-05-21T17:15:34.758Z,8.55
2019-05-21T17:18:04.082Z,7.42
2019-05-21T17:20:34.362Z,7.40
2019-05-21T17:23:03.916Z,7.90
2019-05-21T17:25:33.222Z,10.23
2019-05-21T17:28:02.524Z,9.75
2019-05-21T17:30:31.908Z,8.55
2019-05-21T17:33:01.314Z,12.53
2019-05-21T17:35:30.784Z,11.35
2019-05-21T17:38:00.189Z,14.13
2019-05-21T17:40:47.052Z,15.23
2019-05-21T17:43:19.845Z,13.43
2019-05-21T17:45:49.205Z,14.07
2019-05-21T17:48:18.991Z,15.53
2019-05-21T17:50:48.527Z,14.50
2019-05-21T17:53:19.955Z,16.45
2019-05-21T17:55:49.640Z,15.03
2019-05-21T17:58:19.299Z,18.10
2019-05-21T18:00:52.306Z,17.27
2019-05-21T18:03:21.999Z,16.43
2019-05-21T18:05:52.533Z,16.53
2019-05-21T18:08:21.962Z,15.50
2019-05-21T18:10:51.471Z,13.73
2019-05-21T18:13:22.312Z,12.93
2019-05-21T18:15:51.844Z,13.73
2019-05-21T18:18:22.774Z,13.63
2019-05-21T18:20:52.118Z,13.00
2019-05-21T18:23:23.115Z,14.73
2019-05-21T18:25:52.735Z,15.90
2019-05-21T18:28:22.136Z,15.90
2019-05-21T18:30:51.890Z,15.13
2019-05-21T18:33:21.373Z,15.07
2019-05-21T18:35:50.812Z,17.27
2019-05-21T18:38:20.208Z,16.73
2019-05-21T18:40:49.585Z,17.53
2019-05-21T18:43:19.508Z,19.17
2019-05-21T18:45:48.955Z,18.30
2019-05-21T18:48:18.476Z,19.20
2019-05-21T18:50:47.959Z,18.27
2019-05-21T18:53:17.394Z,21.23
2019-05-21T18:55:46.855Z,21.87
2019-05-21T18:58:17.476Z,20.17
2019-05-21T19:00:50.651Z,25.20
2019-05-21T19:03:25.104Z,26.40
2019-05-21T19:05:51.286Z,28.57
2019-05-21T19:08:20.689Z,29.73
2019-05-21T19:10:50.010Z,26.97
2019-05-21T19:13:19.508Z,30.53
2019-05-21T19:15:49.199Z,28.43
2019-05-21T19:18:18.613Z,28.40
2019-05-21T19:20:50.077Z,27.03
2019-05-21T19:23:19.325Z,26.57
2019-05-21T19:25:48.859Z,29.17
2019-05-21T19:28:18.200Z,27.30
2019-05-21T19:30:47.470Z,27.80
2019-05-21T19:33:16.817Z,27.57
2019-05-21T19:35:47.593Z,28.03
2019-05-21T19:38:16.912Z,26.47
2019-05-21T19:40:46.250Z,25.20
2019-05-21T19:43:16.292Z,25.87
2019-05-21T19:45:45.671Z,26.37
2019-05-21T19:48:15.009Z,27.27
2019-05-21T19:50:44.357Z,27.33
2019-05-21T19:53:15.455Z,69.33
2019-05-21T19:55:44.737Z,26.93
2019-05-21T19:58:14.030Z,27.07
2019-05-21T20:00:50.435Z,29.00
2019-05-21T20:03:19.984Z,30.10
2019-05-21T20:05:49.605Z,27.27
2019-05-21T20:08:19.362Z,29.23
2019-05-21T20:10:48.746Z,29.20
2019-05-21T20:13:25.043Z,29.57
2019-05-21T20:15:49.681Z,31.47
2019-05-21T20:18:19.319Z,30.80
2019-05-21T20:20:49.720Z,31.33
2019-05-21T20:23:19.541Z,33.90
2019-05-21T20:25:56.387Z,33.50
2019-05-21T20:28:19.810Z,34.43
2019-05-21T20:30:49.953Z,34.57
2019-05-21T20:33:19.775Z,35.97
2019-05-21T20:35:49.567Z,35.30
2019-05-21T20:38:19.331Z,34.33
2019-05-21T20:40:48.510Z,35.33
2019-05-21T20:43:17.823Z,30.87
2019-05-21T20:45:49.212Z,31.23
2019-05-21T20:48:19.314Z,31.40
2019-05-21T20:50:48.865Z,32.03
2019-05-21T20:53:18.301Z,31.07
2019-05-21T20:55:48.011Z,31.37
2019-05-21T20:58:17.653Z,32.47
2019-05-21T21:00:56.808Z,33.40
2019-05-21T21:03:26.317Z,32.20
2019-05-21T21:05:55.777Z,33.33
2019-05-21T21:08:27.853Z,36.50
2019-05-21T21:11:01.534Z,35.20
2019-05-21T21:13:30.890Z,36.50
2019-05-21T21:16:00.120Z,37.13
2019-05-21T21:18:29.653Z,36.07
2019-05-21T21:20:58.984Z,35.40
2019-05-21T21:23:30.250Z,57.87
2019-05-21T21:26:00.245Z,36.97
2019-05-21T21:28:29.620Z,36.73
2019-05-21T21:30:59.234Z,35.73
2019-05-21T21:33:29.232Z,36.67
2019-05-21T21:35:58.626Z,36.60
2019-05-21T21:38:28.892Z,37.97
2019-05-21T21:40:58.273Z,37.13
2019-05-21T21:43:27.858Z,37.87
2019-05-21T21:45:57.354Z,37.03
2019-05-21T21:48:29.350Z,36.07
2019-05-21T21:50:58.869Z,38.60
2019-05-21T21:53:28.230Z,37.77
2019-05-21T21:55:57.605Z,38.60
2019-05-21T21:58:26.915Z,38.53
2019-05-21T22:01:28.477Z,37.63
2019-05-21T22:04:02.339Z,37.43
2019-05-21T22:06:35.514Z,38.27
2019-05-21T22:09:08.028Z,38.80
2019-05-21T22:11:38.327Z,38.80
2019-05-21T22:14:07.797Z,37.63
2019-05-21T22:16:37.272Z,36.70
2019-05-21T22:19:08.269Z,37.17
2019-05-21T22:21:38.033Z,38.17
2019-05-21T22:24:07.527Z,39.60
2019-05-21T22:26:36.955Z,39.07
2019-05-21T22:29:06.353Z,40.43
2019-05-21T22:31:35.737Z,40.33
2019-05-21T22:34:05.242Z,38.73
2019-05-21T22:36:34.600Z,40.17
2019-05-21T22:39:06.846Z,41.23
2019-05-21T22:41:36.126Z,39.50
2019-05-21T22:44:05.625Z,40.97
2019-05-21T22:46:34.984Z,41.17
2019-05-21T22:49:04.349Z,39.47
2019-05-21T22:51:33.723Z,38.87
2019-05-21T22:54:03.093Z,40.67
2019-05-21T22:56:32.466Z,40.20
2019-05-21T22:59:01.809Z,40.07
2019-05-21T23:01:32.700Z,38.67
2019-05-21T23:04:02.069Z,40.03
2019-05-21T23:06:31.462Z,42.00
2019-05-21T23:09:00.811Z,41.70
2019-05-21T23:11:30.228Z,40.67
2019-05-21T23:13:59.692Z,40.50
2019-05-21T23:16:29.625Z,42.40
2019-05-21T23:18:58.989Z,42.53
2019-05-21T23:21:29.564Z,40.77
2019-05-21T23:23:59.038Z,42.70
2019-05-21T23:26:28.849Z,41.47
2019-05-21T23:28:58.584Z,41.97
2019-05-21T23:31:28.960Z,42.23
2019-05-21T23:34:00.901Z,42.50
2019-05-21T23:36:30.399Z,40.50
2019-05-21T23:39:00.097Z,42.57
2019-05-21T23:41:30.463Z,41.77
2019-05-21T23:44:00.617Z,42.33
2019-05-21T23:46:30.100Z,41.70
2019-05-21T23:48:59.451Z,42.50
2019-05-21T23:51:28.905Z,43.63
2019-05-21T23:53:58.376Z,41.90
2019-05-21T23:56:27.858Z,44.03
2019-05-21T23:58:57.252Z,43.37
